Herbert, Illinois
Current Conditions -  °F | °C
As of 10:35 AM on Wednesday 26 Nov 2014 (Local Time) from KDKB Reporting Station
Overcast Overcast  
Wind Chill: 14°   Ceiling: 1200
Heat Index: 22°   Visibility: 7mi
Dew Point: 21°   Wind: 7mph
Humidity: 94%   Direction: 130°SE
Pressure: 30.14"   Gusts: NA
Location:  42.1119°N, 88.7806°W
Report Text: KDKB 261635Z AUTO 13006KT 7SM OVC012 M05/M06 A3014 RMK AO2 T10551063
Loading
Personal Weather Stations






























Interactive Weather Map New forecast layout! Learn more

10-Day Weather Forecast

Advertisements
Track Severe Weather on mobile